»·PEaware :: WAT380 KLAX-KMFR

WAT380 :: KLAX-KMFR

FLIGHT INFORMATION

Flight Status: Arrived
Operator:
Walker Air Transport
More flights by this operator :: More flights under this callsign
Pilot: Spencer M. (27733)
Aircraft: BOEING 737-900
(B739)
More flights by this aircraft type
Origin: KLAX Los Angeles Intl
United States
Destination: KMFR Rogue Valley Intl-Medford
United States
More flights between these airports :: More routes between these airports
Route: LADYJ4 CSTRO NTELL BOWTY HOMAN ZUNAS OED
File this flight plan on PilotEdge
Remarks:
Altitude:
(Current/Filed)
34,000ft
Speed:
(Current/Filed)
450kts
Departed: 26-Sep-22 06:28 PM
Arrived: 26-Sep-22 07:51 PM
Distance/Time
Traveled:
548nm/1:23
Distance/Time
To Go:
Arrived

Flight Plot

Page will automatically refresh every two minutes.

Flight plan parsing failed; only flown route is shown


Map Options




Map Legend


Flown Route
Filed Route
Departure Airport
Arrival Airport
Navaid (VOR, NDB)
Fix

Horizontal Profiles

Position Reports

Time Latitude Longitude Heading Altitude Ground
Speed
26-Sep-22 18:11 33.946598 -118.404862 118 129ft 0kts
26-Sep-22 18:12 33.946598 -118.404862 118 129ft 0kts
26-Sep-22 18:13 33.946598 -118.404862 118 129ft 0kts
26-Sep-22 18:14 33.946598 -118.404862 118 129ft 0kts
26-Sep-22 18:15 33.946598 -118.404862 118 129ft 0kts
26-Sep-22 18:16 33.946598 -118.404862 118 129ft 0kts
26-Sep-22 18:17 33.946598 -118.404862 118 129ft 0kts
26-Sep-22 18:18 33.946598 -118.404862 118 129ft 0kts
26-Sep-22 18:19 33.946598 -118.404862 118 129ft 0kts
26-Sep-22 18:20 33.946763 -118.405365 80 128ft 2kts
26-Sep-22 18:21 33.946395 -118.405699 350 129ft 1kts
26-Sep-22 18:22 33.946362 -118.405693 354 128ft 0kts
26-Sep-22 18:23 33.946639 -118.405727 354 128ft 5kts
26-Sep-22 18:24 33.948720 -118.405155 83 127ft 10kts
26-Sep-22 18:25 33.949191 -118.400588 83 123ft 15kts
26-Sep-22 18:26 33.950304 -118.400383 264 120ft 34kts
26-Sep-22 18:27 33.945935 -118.449951 262 996ft 213kts
26-Sep-22 18:28 33.940547 -118.531884 265 3931ft 262kts
26-Sep-22 18:29 33.938149 -118.621090 288 7187ft 279kts
26-Sep-22 18:30 33.998904 -118.675904 351 10126ft 297kts
26-Sep-22 18:31 34.091471 -118.668731 10 10730ft 345kts
26-Sep-22 18:32 34.184487 -118.646660 10 10751ft 342kts
26-Sep-22 18:33 34.278383 -118.640141 349 10756ft 342kts
26-Sep-22 18:34 34.372990 -118.661876 349 12883ft 355kts
26-Sep-22 18:35 34.472223 -118.683085 351 15633ft 373kts
26-Sep-22 18:36 34.577648 -118.703081 350 18089ft 392kts
26-Sep-22 18:37 34.686869 -118.725641 346 20394ft 408kts
26-Sep-22 18:38 34.791447 -118.781197 329 22531ft 420kts
26-Sep-22 18:39 34.894860 -118.851439 329 24534ft 433kts
26-Sep-22 18:40 35.002461 -118.920441 330 26401ft 444kts
26-Sep-22 18:41 35.113285 -118.990549 329 28096ft 454kts
26-Sep-22 18:42 35.224302 -119.065472 326 29527ft 463kts
26-Sep-22 18:44 35.335031 -119.147372 324 30904ft 469kts
26-Sep-22 18:45 35.445135 -119.230867 333 32445ft 469kts
26-Sep-22 18:46 35.567008 -119.287483 336 33808ft 468kts
26-Sep-22 18:47 35.688994 -119.341993 336 33918ft 466kts
26-Sep-22 18:48 35.810882 -119.396407 336 33917ft 469kts
26-Sep-22 18:49 35.934082 -119.451528 336 33919ft 479kts
26-Sep-22 18:50 36.060027 -119.508017 336 33917ft 484kts
26-Sep-22 18:51 36.185876 -119.564635 336 33917ft 483kts
26-Sep-22 18:52 36.311855 -119.621518 336 33917ft 483kts
26-Sep-22 18:53 36.437882 -119.678593 335 33917ft 483kts
26-Sep-22 18:54 36.563404 -119.735628 335 33921ft 482kts
26-Sep-22 18:55 36.689097 -119.792964 336 33926ft 483kts
26-Sep-22 18:56 36.814699 -119.850462 336 33926ft 482kts
26-Sep-22 18:57 36.937487 -119.914426 329 33928ft 478kts
26-Sep-22 18:58 37.055281 -119.990906 328 33926ft 479kts
26-Sep-22 18:59 37.173916 -120.068468 328 33959ft 483kts
26-Sep-22 19:00 37.292497 -120.146285 328 34007ft 482kts
26-Sep-22 19:01 37.410971 -120.224327 328 33947ft 482kts
26-Sep-22 19:02 37.529526 -120.302713 329 33927ft 483kts
26-Sep-22 19:03 37.647958 -120.381299 329 33926ft 483kts
26-Sep-22 19:04 37.766467 -120.460221 329 33926ft 483kts
26-Sep-22 19:05 37.884687 -120.539238 329 33989ft 482kts
26-Sep-22 19:06 38.002758 -120.618448 329 34018ft 482kts
26-Sep-22 19:07 38.121310 -120.698237 328 34018ft 482kts
26-Sep-22 19:08 38.239592 -120.778140 328 34018ft 483kts
26-Sep-22 19:08 38.338167 -120.844974 328 34056ft 483kts
26-Sep-22 19:10 38.475926 -120.938726 328 34091ft 482kts
26-Sep-22 19:11 38.593442 -121.019035 328 34058ft 482kts
26-Sep-22 19:12 38.711386 -121.099935 328 34002ft 482kts
26-Sep-22 19:12 38.809786 -121.167664 328 33956ft 482kts
26-Sep-22 19:14 38.946884 -121.262384 328 33923ft 482kts
26-Sep-22 19:15 39.064889 -121.344251 328 33917ft 484kts
26-Sep-22 19:15 39.163204 -121.412694 328 33917ft 484kts
26-Sep-22 19:16 39.281410 -121.495271 329 33917ft 484kts
26-Sep-22 19:17 39.404408 -121.565559 334 33917ft 486kts
26-Sep-22 19:18 39.528488 -121.634300 334 33917ft 487kts
26-Sep-22 19:20 39.673800 -121.715284 333 33925ft 487kts
26-Sep-22 19:20 39.776713 -121.772919 333 33926ft 487kts
26-Sep-22 19:21 39.901046 -121.842826 333 33926ft 487kts
26-Sep-22 19:22 40.025106 -121.912867 333 33926ft 487kts
26-Sep-22 19:23 40.148005 -121.982529 333 33924ft 487kts
26-Sep-22 19:24 40.271706 -122.052927 333 33995ft 487kts
26-Sep-22 19:25 40.395345 -122.123570 333 33967ft 486kts
26-Sep-22 19:26 40.521947 -122.186251 337 33917ft 487kts
26-Sep-22 19:27 40.649099 -122.247631 337 33918ft 487kts
26-Sep-22 19:28 40.775708 -122.309289 337 34067ft 487kts
26-Sep-22 19:29 40.902061 -122.371153 337 34118ft 486kts
26-Sep-22 19:30 41.023711 -122.430921 337 31946ft 459kts
26-Sep-22 19:31 41.143475 -122.490084 337 27769ft 465kts
26-Sep-22 19:32 41.263320 -122.549466 337 24136ft 448kts
26-Sep-22 19:33 41.379047 -122.607062 337 24079ft 445kts
26-Sep-22 19:34 41.489172 -122.661992 336 22334ft 394kts
26-Sep-22 19:35 41.584498 -122.709714 336 20482ft 358kts
26-Sep-22 19:36 41.675507 -122.755485 336 17953ft 345kts
26-Sep-22 19:37 41.763377 -122.799850 337 14996ft 333kts
26-Sep-22 19:38 41.844792 -122.838418 357 13054ft 302kts
26-Sep-22 19:39 41.912797 -122.783534 48 9999ft 295kts
26-Sep-22 19:40 41.966000 -122.705794 46 7706ft 269kts
26-Sep-22 19:41 42.014657 -122.638759 43 7435ft 248kts
26-Sep-22 19:42 42.073999 -122.598433 8 7409ft 236kts
26-Sep-22 19:43 42.138292 -122.610220 333 7399ft 235kts
26-Sep-22 19:44 42.186022 -122.662583 309 5924ft 199kts
26-Sep-22 19:45 42.221904 -122.716179 307 5120ft 184kts
26-Sep-22 19:46 42.248643 -122.771572 302 4057ft 171kts
26-Sep-22 19:47 42.279249 -122.815879 323 3187ft 156kts
26-Sep-22 19:48 42.317570 -122.842582 338 2300ft 153kts
26-Sep-22 19:49 42.355821 -122.863268 337 1530ft 142kts
26-Sep-22 19:50 42.380089 -122.876020 338 1310ft 16kts
26-Sep-22 19:51 42.380275 -122.877552 181 1309ft 0kts

Navigation Log

Ident Type
Flight plan parsing failed, navigation log unavailable